Time,TemperatureF,DewpointF,PressureIn,WindDirection,WindDirectionDegrees,WindSpeedMPH,WindSpeedGustMPH,Humidity,HourlyPrecipIn,Conditions,Clouds,dailyrainin,SolarRadiationWatts/m^2,SoftwareType,DateUTC
2013-01-15 00:04:00,39.0,26.0,30.17,NNE,16,9.0,13.0,60,0.00,,,0.00,0,weatherlink.com 1.10,2013-01-15 06:04:00,
2013-01-15 00:19:00,38.8,26.0,30.17,NNE,21,9.0,11.0,60,0.00,,,0.00,0,weatherlink.com 1.10,2013-01-15 06:19:00,
2013-01-15 00:34:00,38.5,27.0,30.15,NNE,17,9.0,11.0,64,0.00,,,0.00,0,weatherlink.com 1.10,2013-01-15 06:34:00,
2013-01-15 00:49:00,38.1,27.0,30.13,NNE,29,12.0,17.0,65,0.00,,,0.00,0,weatherlink.com 1.10,2013-01-15 06:49:00,
2013-01-15 01:04:00,38.1,26.0,30.11,NNE,32,14.0,19.0,62,0.00,,,0.00,0,weatherlink.com 1.10,2013-01-15 07:04:00,
2013-01-15 01:19:00,38.0,26.0,30.11,NNE,24,10.0,20.0,62,0.00,,,0.00,0,weatherlink.com 1.10,2013-01-15 07:19:00,
2013-01-15 01:34:00,38.0,26.0,30.13,NNE,20,7.0,14.0,62,0.00,,,0.00,0,weatherlink.com 1.10,2013-01-15 07:34:00,
2013-01-15 01:49:00,38.0,27.0,30.16,NNW,345,5.0,8.0,65,0.00,,,0.00,0,weatherlink.com 1.10,2013-01-15 07:49:00,
2013-01-15 02:04:00,37.7,28.0,30.15,NNW,339,9.0,11.0,67,0.00,,,0.00,0,weatherlink.com 1.10,2013-01-15 08:04:00,
2013-01-15 02:19:00,37.6,27.0,30.14,NNE,18,7.0,12.0,66,0.00,,,0.00,0,weatherlink.com 1.10,2013-01-15 08:19:00,
2013-01-15 02:34:00,37.5,27.0,30.14,NNW,342,10.0,12.0,66,0.00,,,0.00,0,weatherlink.com 1.10,2013-01-15 08:34:00,
2013-01-15 02:49:00,37.2,26.0,30.14,NNW,345,8.0,12.0,65,0.00,,,0.00,0,weatherlink.com 1.10,2013-01-15 08:49:00,
2013-01-15 03:04:00,37.0,27.0,30.14,NNW,345,10.0,13.0,66,0.00,,,0.00,0,weatherlink.com 1.10,2013-01-15 09:04:00,
2013-01-15 03:19:00,37.0,27.0,30.16,North,359,5.0,11.0,66,0.00,,,0.00,0,weatherlink.com 1.10,2013-01-15 09:19:00,
2013-01-15 03:34:00,36.7,26.0,30.15,NW,322,10.0,14.0,66,0.00,,,0.00,0,weatherlink.com 1.10,2013-01-15 09:34:00,
2013-01-15 03:49:00,36.4,26.0,30.14,North,354,11.0,15.0,67,0.00,,,0.00,0,weatherlink.com 1.10,2013-01-15 09:49:00,
2013-01-15 04:04:00,36.3,26.0,30.14,NNW,345,14.0,15.0,66,0.00,,,0.00,0,weatherlink.com 1.10,2013-01-15 10:04:00,
2013-01-15 04:19:00,36.0,26.0,30.14,NNW,341,12.0,16.0,67,0.00,,,0.00,0,weatherlink.com 1.10,2013-01-15 10:19:00,
2013-01-15 04:34:00,35.6,26.0,30.14,North,349,10.0,15.0,67,0.00,,,0.00,0,weatherlink.com 1.10,2013-01-15 10:34:00,
2013-01-15 04:49:00,35.2,26.0,30.14,NNW,341,10.0,16.0,70,0.00,,,0.00,0,weatherlink.com 1.10,2013-01-15 10:49:00,
2013-01-15 05:04:00,34.2,27.0,30.13,North,359,11.0,16.0,74,0.00,,,0.00,0,weatherlink.com 1.10,2013-01-15 11:04:00,
2013-01-15 05:19:00,33.5,27.0,30.14,North,354,10.0,16.0,78,0.00,,,0.00,0,weatherlink.com 1.10,2013-01-15 11:19:00,
2013-01-15 05:34:00,33.1,28.0,30.13,NNW,345,0.0,11.0,81,0.00,,,0.00,0,weatherlink.com 1.10,2013-01-15 11:34:00,
2013-01-15 05:50:00,32.9,28.0,30.12,NNE,23,0.0,0.0,81,0.00,,,0.00,0,weatherlink.com 1.10,2013-01-15 11:50:00,
2013-01-15 06:05:00,32.8,28.0,30.12,North,354,0.0,0.0,83,0.00,,,0.00,0,weatherlink.com 1.10,2013-01-15 12:05:00,
2013-01-15 06:20:00,32.8,28.0,30.16,NW,324,0.0,0.0,83,0.00,,,0.00,0,weatherlink.com 1.10,2013-01-15 12:20:00,
2013-01-15 06:35:00,32.7,29.0,30.16,North,354,0.0,0.0,85,0.00,,,0.00,0,weatherlink.com 1.10,2013-01-15 12:35:00,
2013-01-15 06:50:00,32.5,29.0,30.16,NW,320,0.0,0.0,88,0.00,,,0.00,0,weatherlink.com 1.10,2013-01-15 12:50:00,
2013-01-15 07:05:00,32.4,30.0,30.16,North,354,0.0,0.0,89,0.00,,,0.00,0,weatherlink.com 1.10,2013-01-15 13:05:00,
2013-01-15 07:20:00,32.3,30.0,30.15,North,4,0.0,0.0,89,0.00,,,0.00,0,weatherlink.com 1.10,2013-01-15 13:20:00,
2013-01-15 07:35:00,32.0,29.0,30.15,NNW,347,0.0,0.0,89,0.00,,,0.00,0,weatherlink.com 1.10,2013-01-15 13:35:00,
2013-01-15 07:50:00,31.9,29.0,30.16,NNE,16,0.0,0.0,89,0.00,,,0.00,0,weatherlink.com 1.10,2013-01-15 13:50:00,
2013-01-15 08:05:00,31.7,29.0,30.16,North,359,0.0,0.0,90,0.00,,,0.00,5,weatherlink.com 1.10,2013-01-15 14:05:00,
2013-01-15 08:20:00,31.8,29.0,30.16,North,354,0.0,0.0,90,0.00,,,0.00,9,weatherlink.com 1.10,2013-01-15 14:20:00,
2013-01-15 08:35:00,31.8,30.0,30.16,North,354,0.0,0.0,91,0.00,,,0.00,11,weatherlink.com 1.10,2013-01-15 14:35:00,
2013-01-15 08:50:00,31.8,30.0,30.16,North,4,0.0,0.0,91,0.00,,,0.00,16,weatherlink.com 1.10,2013-01-15 14:50:00,
2013-01-15 09:05:00,31.8,30.0,30.16,NNE,17,0.0,0.0,91,0.00,,,0.00,19,weatherlink.com 1.10,2013-01-15 15:05:00,
2013-01-15 09:20:00,31.9,30.0,30.16,NNE,24,0.0,0.0,91,0.00,,,0.00,32,weatherlink.com 1.10,2013-01-15 15:20:00,
2013-01-15 09:35:00,32.1,30.0,30.17,NNE,12,0.0,0.0,92,0.00,,,0.00,28,weatherlink.com 1.10,2013-01-15 15:35:00,
2013-01-15 09:50:00,32.2,30.0,30.18,North,4,0.0,0.0,92,0.00,,,0.00,30,weatherlink.com 1.10,2013-01-15 15:50:00,
2013-01-15 10:05:00,32.3,30.0,30.18,North,354,0.0,0.0,92,0.00,,,0.00,26,weatherlink.com 1.10,2013-01-15 16:05:00,
2013-01-15 10:20:00,32.4,30.0,30.17,North,4,0.0,0.0,92,0.00,,,0.00,40,weatherlink.com 1.10,2013-01-15 16:20:00,
2013-01-15 10:35:00,32.5,31.0,30.16,North,359,0.0,0.0,92,0.00,,,0.00,49,weatherlink.com 1.10,2013-01-15 16:35:00,
2013-01-15 10:50:00,32.5,31.0,30.15,North,354,0.0,0.0,92,0.00,,,0.00,67,weatherlink.com 1.10,2013-01-15 16:50:00,
2013-01-15 11:05:00,32.6,31.0,30.14,NNW,342,0.0,0.0,92,0.00,,,0.00,56,weatherlink.com 1.10,2013-01-15 17:05:00,
2013-01-15 11:20:00,32.5,31.0,30.14,NNW,345,0.0,0.0,92,0.00,,,0.00,60,weatherlink.com 1.10,2013-01-15 17:20:00,
2013-01-15 11:35:00,32.7,31.0,30.14,NNW,331,0.0,0.0,92,0.00,,,0.00,54,weatherlink.com 1.10,2013-01-15 17:35:00,
2013-01-15 11:50:00,32.6,31.0,30.14,NW,324,0.0,0.0,92,0.00,,,0.00,40,weatherlink.com 1.10,2013-01-15 17:50:00,
2013-01-15 12:05:00,32.7,31.0,30.13,NW,316,0.0,0.0,92,0.00,,,0.00,54,weatherlink.com 1.10,2013-01-15 18:05:00,
2013-01-15 12:20:00,32.7,31.0,30.12,NW,324,0.0,0.0,92,0.00,,,0.00,58,weatherlink.com 1.10,2013-01-15 18:20:00,
2013-01-15 12:35:00,32.9,31.0,30.11,NNW,330,0.0,0.0,93,0.00,,,0.00,65,weatherlink.com 1.10,2013-01-15 18:35:00,
2013-01-15 12:50:00,33.0,31.0,30.11,NW,313,0.0,0.0,93,0.00,,,0.00,81,weatherlink.com 1.10,2013-01-15 18:50:00,
2013-01-15 13:05:00,33.2,31.0,30.11,NW,310,0.0,0.0,93,0.00,,,0.00,81,weatherlink.com 1.10,2013-01-15 19:05:00,
2013-01-15 13:20:00,33.4,32.0,30.11,NW,323,0.0,0.0,93,0.00,,,0.00,104,weatherlink.com 1.10,2013-01-15 19:20:00,
2013-01-15 13:35:00,33.6,32.0,30.11,NW,318,0.0,0.0,93,0.00,,,0.00,79,weatherlink.com 1.10,2013-01-15 19:35:00,
2013-01-15 13:50:00,33.9,32.0,30.10,NW,322,0.0,0.0,92,0.01,,,0.01,90,weatherlink.com 1.10,2013-01-15 19:50:00,
2013-01-15 14:05:00,34.2,32.0,30.10,NW,322,0.0,0.0,92,0.01,,,0.01,118,weatherlink.com 1.10,2013-01-15 20:05:00,
2013-01-15 14:20:00,34.6,33.0,30.10,NW,322,0.0,0.0,92,0.02,,,0.02,162,weatherlink.com 1.10,2013-01-15 20:20:00,
2013-01-15 14:35:00,35.0,33.0,30.10,NNW,332,11.0,11.0,92,0.03,,,0.03,111,weatherlink.com 1.10,2013-01-15 20:35:00,
2013-01-15 14:50:00,35.2,33.0,30.10,NNW,330,11.0,13.0,93,0.02,,,0.03,111,weatherlink.com 1.10,2013-01-15 20:50:00,
2013-01-15 15:05:00,35.4,33.0,30.10,NW,320,9.0,16.0,92,0.03,,,0.04,70,weatherlink.com 1.10,2013-01-15 21:05:00,
2013-01-15 15:20:00,35.6,34.0,30.11,NW,320,9.0,17.0,92,0.02,,,0.04,81,weatherlink.com 1.10,2013-01-15 21:20:00,
2013-01-15 15:35:00,35.7,34.0,30.11,NW,323,12.0,17.0,92,0.01,,,0.04,62,weatherlink.com 1.10,2013-01-15 21:35:00,
2013-01-15 15:50:00,35.9,34.0,30.12,NNW,329,15.0,19.0,92,0.01,,,0.04,54,weatherlink.com 1.10,2013-01-15 21:50:00,
2013-01-15 16:05:00,36.1,34.0,30.13,NNW,337,16.0,17.0,91,0.00,,,0.04,37,weatherlink.com 1.10,2013-01-15 22:05:00,
2013-01-15 16:20:00,36.0,33.0,30.13,North,354,11.0,17.0,90,0.00,,,0.04,44,weatherlink.com 1.10,2013-01-15 22:20:00,
2013-01-15 16:35:00,36.3,33.0,30.13,NNW,338,10.0,15.0,89,0.00,,,0.04,46,weatherlink.com 1.10,2013-01-15 22:35:00,
2013-01-15 16:50:00,36.5,33.0,30.13,NNW,328,11.0,14.0,87,0.00,,,0.04,44,weatherlink.com 1.10,2013-01-15 22:50:00,
2013-01-15 17:05:00,36.6,33.0,30.13,NNW,327,11.0,16.0,88,0.00,,,0.04,19,weatherlink.com 1.10,2013-01-15 23:05:00,
2013-01-15 17:20:00,36.5,33.0,30.14,NW,312,10.0,13.0,87,0.00,,,0.04,9,weatherlink.com 1.10,2013-01-15 23:20:00,
2013-01-15 17:35:00,36.7,33.0,30.15,NNW,333,6.0,13.0,85,0.00,,,0.04,0,weatherlink.com 1.10,2013-01-15 23:35:00,
2013-01-15 17:50:00,36.7,32.0,30.17,NW,314,7.0,12.0,83,0.00,,,0.04,0,weatherlink.com 1.10,2013-01-15 23:50:00,
2013-01-15 18:06:00,36.7,32.0,30.17,NNW,335,7.0,9.0,83,0.00,,,0.04,0,weatherlink.com 1.10,2013-01-16 00:06:00,
2013-01-15 18:21:00,36.6,32.0,30.17,NNW,328,6.0,8.0,83,0.00,,,0.04,0,weatherlink.com 1.10,2013-01-16 00:21:00,
2013-01-15 18:36:00,36.7,32.0,30.17,NW,324,6.0,8.0,84,0.00,,,0.04,0,weatherlink.com 1.10,2013-01-16 00:36:00,
2013-01-15 18:51:00,36.7,32.0,30.18,NNW,328,6.0,7.0,84,0.00,,,0.04,0,weatherlink.com 1.10,2013-01-16 00:51:00,
2013-01-15 19:06:00,36.8,32.0,30.17,NNW,335,6.0,7.0,83,0.00,,,0.04,0,weatherlink.com 1.10,2013-01-16 01:06:00,
2013-01-15 19:21:00,36.9,32.0,30.17,NNW,328,4.0,7.0,82,0.00,,,0.04,0,weatherlink.com 1.10,2013-01-16 01:21:00,
2013-01-15 19:36:00,37.0,32.0,30.17,NW,322,4.0,9.0,83,0.00,,,0.04,0,weatherlink.com 1.10,2013-01-16 01:36:00,
2013-01-15 19:51:00,37.1,32.0,30.18,NW,305,8.0,9.0,82,0.00,,,0.04,0,weatherlink.com 1.10,2013-01-16 01:51:00,
2013-01-15 20:06:00,37.4,32.0,30.18,NW,317,5.0,8.0,80,0.00,,,0.04,0,weatherlink.com 1.10,2013-01-16 02:06:00,
2013-01-15 20:21:00,37.5,32.0,30.19,WNW,293,7.0,9.0,80,0.00,,,0.04,0,weatherlink.com 1.10,2013-01-16 02:21:00,
2013-01-15 20:36:00,37.5,32.0,30.20,WNW,292,6.0,9.0,80,0.00,,,0.04,0,weatherlink.com 1.10,2013-01-16 02:36:00,
2013-01-15 20:51:00,37.4,32.0,30.19,NW,307,6.0,10.0,81,0.00,,,0.04,0,weatherlink.com 1.10,2013-01-16 02:51:00,
2013-01-15 21:06:00,37.2,32.0,30.19,NW,304,6.0,8.0,81,0.00,,,0.04,0,weatherlink.com 1.10,2013-01-16 03:06:00,
2013-01-15 21:21:00,37.1,32.0,30.18,NW,308,7.0,10.0,81,0.00,,,0.04,0,weatherlink.com 1.10,2013-01-16 03:21:00,
2013-01-15 21:36:00,37.5,32.0,30.18,NW,310,7.0,12.0,79,0.00,,,0.04,0,weatherlink.com 1.10,2013-01-16 03:36:00,
2013-01-15 21:51:00,37.3,31.0,30.16,NNW,338,7.0,11.0,77,0.00,,,0.04,0,weatherlink.com 1.10,2013-01-16 03:51:00,
2013-01-15 22:06:00,36.7,30.0,30.17,NW,321,5.0,9.0,78,0.00,,,0.04,0,weatherlink.com 1.10,2013-01-16 04:06:00,
2013-01-15 22:21:00,35.9,30.0,30.16,WNW,295,6.0,8.0,80,0.00,,,0.04,0,weatherlink.com 1.10,2013-01-16 04:21:00,
2013-01-15 22:36:00,35.7,30.0,30.18,WNW,290,6.0,8.0,81,0.00,,,0.04,0,weatherlink.com 1.10,2013-01-16 04:36:00,
2013-01-15 22:51:00,35.2,30.0,30.17,WNW,293,9.0,10.0,82,0.00,,,0.04,0,weatherlink.com 1.10,2013-01-16 04:51:00,
2013-01-15 23:06:00,34.8,30.0,30.19,West,277,6.0,8.0,82,0.00,,,0.04,0,weatherlink.com 1.10,2013-01-16 05:06:00,
2013-01-15 23:21:00,34.4,29.0,30.18,WNW,295,5.0,7.0,82,0.00,,,0.04,0,weatherlink.com 1.10,2013-01-16 05:21:00,
2013-01-15 23:36:00,33.9,29.0,30.18,WNW,295,6.0,8.0,83,0.00,,,0.04,0,weatherlink.com 1.10,2013-01-16 05:36:00,
2013-01-15 23:51:00,33.6,29.0,30.19,WNW,298,5.0,10.0,82,0.00,,,0.04,0,weatherlink.com 1.10,2013-01-16 05:51:00,